Time;durP1;ratioP1;P1;durP2;ratioP2;P2;SDS_P1;SDS_P2;PMS_P1;PMS_P2;Temp;Humidity;BMP_temperature;BMP_pressure;BME280_temperature;BME280_humidity;BME280_pressure;Samples;Min_cycle;Max_cycle;Signal;HPM_P1;HPM_P2
2022/10/20 00:01:02;;;;;;;9.60;7.70;;;;;;;;;;5053530;28;20220;-88
2022/10/20 00:03:29;;;;;;;15.50;7.57;;;;;;;;;;5053531;28;20241;-88
2022/10/20 00:06:06;;;;;;;9.87;7.80;;;;;;;;;;5053982;28;20213;-88
2022/10/20 00:08:33;;;;;;;13.40;7.50;;;;;;;;;;5053199;28;20237;-88
2022/10/20 00:11:01;;;;;;;10.50;7.80;;;;;;;;;;5053818;28;20208;-88
2022/10/20 00:13:28;;;;;;;17.97;7.90;;;;;;;;;;5053305;28;20693;-88
2022/10/20 00:15:56;;;;;;;9.40;7.10;;;;;;;;;;5053044;28;20206;-88
2022/10/20 00:18:24;;;;;;;10.67;7.07;;;;;;;;;;5053044;28;20230;-88
2022/10/20 00:20:51;;;;;;;9.47;8.07;;;;;;;;;;5053556;28;20221;-89
2022/10/20 00:23:18;;;;;;;14.93;7.50;;;;;;;;;;5053067;28;20253;-88
2022/10/20 00:25:46;;;;;;;10.83;6.97;;;;;;;;;;5053835;28;20206;-88
2022/10/20 00:28:14;;;;;;;10.97;7.63;;;;;;;;;;5052997;28;20238;-88
2022/10/20 00:30:41;;;;;;;10.87;7.33;;;;;;;;;;5053784;28;20210;-88
2022/10/20 00:33:09;;;;;;;9.77;7.60;;;;;;;;;;5055145;28;20233;-87
2022/10/20 00:35:38;;;;;;;9.90;7.80;;;;;;;;;;5057457;28;20209;-88
2022/10/20 00:38:05;;;;;;;10.70;8.47;;;;;;;;;;5054617;28;20230;-88
2022/10/20 00:40:32;;;;;;;15.10;7.77;;;;;;;;;;5055515;28;20359;-88
2022/10/20 00:42:59;;;;;;;8.93;7.80;;;;;;;;;;5054493;28;20245;-88
2022/10/20 00:45:27;;;;;;;8.77;7.90;;;;;;;;;;5054263;28;20202;-88
2022/10/20 00:47:56;;;;;;;10.77;7.37;;;;;;;;;;5053564;28;20307;-88
2022/10/20 00:50:25;;;;;;;10.93;7.63;;;;;;;;;;5053254;28;20214;-88
2022/10/20 00:52:52;;;;;;;11.67;7.73;;;;;;;;;;5054473;28;20237;-88
2022/10/20 00:55:21;;;;;;;8.37;6.80;;;;;;;;;;5054368;28;20206;-88
2022/10/20 00:57:50;;;;;;;10.93;7.37;;;;;;;;;;5052280;28;20230;-88
2022/10/20 01:00:17;;;;;;;11.30;7.70;;;;;;;;;;5045913;28;20202;-87
2022/10/20 01:02:46;;;;;;;10.53;7.43;;;;;;;;;;5072660;28;20240;-88
2022/10/20 01:05:14;;;;;;;10.97;7.47;;;;;;;;;;5048462;28;20242;-88
2022/10/20 01:07:41;;;;;;;11.07;7.80;;;;;;;;;;5050882;28;20238;-88
2022/10/20 01:10:18;;;;;;;10.03;8.20;;;;;;;;;;5054982;28;20222;-88
2022/10/20 01:12:51;;;;;;;10.03;8.13;;;;;;;;;;5074082;28;20237;-88
2022/10/20 01:15:20;;;;;;;10.63;8.17;;;;;;;;;;5075660;28;20196;-88
2022/10/20 01:17:54;;;;;;;15.73;7.83;;;;;;;;;;5073751;28;20229;-88
2022/10/20 01:20:29;;;;;;;10.10;7.93;;;;;;;;;;5072756;28;20189;-88
2022/10/20 01:23:02;;;;;;;10.83;7.13;;;;;;;;;;5057065;28;20234;-88
2022/10/20 01:25:37;;;;;;;11.27;8.33;;;;;;;;;;5052557;28;20194;-88
2022/10/20 01:28:07;;;;;;;15.80;7.17;;;;;;;;;;5055430;28;20236;-88
2022/10/20 01:30:39;;;;;;;11.90;8.33;;;;;;;;;;5058983;28;20229;-88
2022/10/20 01:33:09;;;;;;;8.70;7.80;;;;;;;;;;5056199;28;20595;-88
2022/10/20 01:35:45;;;;;;;10.33;8.00;;;;;;;;;;5056428;28;20206;-88
2022/10/20 01:38:15;;;;;;;8.80;7.90;;;;;;;;;;5055592;28;20229;-88
2022/10/20 01:40:45;;;;;;;11.23;7.90;;;;;;;;;;5056566;28;20183;-89
2022/10/20 01:43:16;;;;;;;11.30;8.83;;;;;;;;;;5055691;28;20237;-89
2022/10/20 01:45:45;;;;;;;11.03;7.97;;;;;;;;;;5056613;28;20675;-88
2022/10/20 01:48:13;;;;;;;14.10;8.30;;;;;;;;;;5055795;28;20720;-88
2022/10/20 01:50:40;;;;;;;12.27;8.00;;;;;;;;;;5056330;28;20229;-88
2022/10/20 01:53:08;;;;;;;15.03;9.27;;;;;;;;;;5055822;28;20241;-88
2022/10/20 01:55:36;;;;;;;10.23;7.77;;;;;;;;;;5056625;28;20214;-88
2022/10/20 01:58:14;;;;;;;9.20;8.30;;;;;;;;;;5055728;28;20744;-88
2022/10/20 02:00:44;;;;;;;13.87;8.00;;;;;;;;;;5055740;28;20193;-88
2022/10/20 02:03:19;;;;;;;10.73;8.23;;;;;;;;;;5059160;28;20242;-88
2022/10/20 02:05:49;;;;;;;13.07;7.93;;;;;;;;;;5064007;28;20200;-88
2022/10/20 02:08:21;;;;;;;12.57;8.20;;;;;;;;;;5063265;28;20241;-88
2022/10/20 02:10:49;;;;;;;11.37;7.97;;;;;;;;;;5063090;28;20194;-88
2022/10/20 02:13:16;;;;;;;12.50;8.10;;;;;;;;;;5061698;28;20229;-89
2022/10/20 02:15:46;;;;;;;9.77;8.10;;;;;;;;;;5070364;28;20220;-89
2022/10/20 02:18:15;;;;;;;11.27;7.63;;;;;;;;;;5065670;28;20237;-88
2022/10/20 02:20:43;;;;;;;9.97;7.83;;;;;;;;;;5058502;28;20221;-89
2022/10/20 02:23:11;;;;;;;8.63;7.73;;;;;;;;;;5056397;28;20239;-88
2022/10/20 02:25:38;;;;;;;14.23;8.80;;;;;;;;;;5056607;28;20232;-88
2022/10/20 02:28:06;;;;;;;10.93;7.97;;;;;;;;;;5056591;28;20226;-88
2022/10/20 02:30:34;;;;;;;11.00;7.87;;;;;;;;;;5056169;28;20233;-88
2022/10/20 02:33:03;;;;;;;11.33;8.67;;;;;;;;;;5065416;28;20225;-88
2022/10/20 02:35:31;;;;;;;11.57;7.77;;;;;;;;;;5076695;28;20182;-88
2022/10/20 02:37:59;;;;;;;11.37;8.00;;;;;;;;;;5073886;28;20324;-88
2022/10/20 02:40:26;;;;;;;9.87;7.90;;;;;;;;;;5058681;28;20198;-88
2022/10/20 02:42:53;;;;;;;14.30;9.20;;;;;;;;;;5057196;28;20241;-88
2022/10/20 02:45:20;;;;;;;12.33;9.30;;;;;;;;;;5056384;28;20209;-89
2022/10/20 02:47:47;;;;;;;10.80;9.33;;;;;;;;;;5055652;28;20242;-87
2022/10/20 02:50:16;;;;;;;11.70;9.13;;;;;;;;;;5056211;28;20222;-88
2022/10/20 02:52:44;;;;;;;13.50;9.20;;;;;;;;;;5055172;28;20242;-88
2022/10/20 02:55:11;;;;;;;14.07;9.17;;;;;;;;;;5055923;28;20212;-88
2022/10/20 02:57:38;;;;;;;13.17;9.50;;;;;;;;;;5054695;28;20232;-88
2022/10/20 03:00:06;;;;;;;12.83;9.40;;;;;;;;;;5054771;28;20201;-89
2022/10/20 03:02:33;;;;;;;17.27;10.37;;;;;;;;;;5054561;28;20233;-88
2022/10/20 03:05:00;;;;;;;11.30;9.43;;;;;;;;;;5055482;28;20202;-89
2022/10/20 03:07:29;;;;;;;13.60;8.97;;;;;;;;;;5054438;28;20226;-89
2022/10/20 03:09:56;;;;;;;11.77;8.67;;;;;;;;;;5054476;28;20225;-88
2022/10/20 03:12:23;;;;;;;12.33;10.13;;;;;;;;;;5054480;28;20233;-88
2022/10/20 03:14:50;;;;;;;15.70;10.73;;;;;;;;;;5055061;28;20213;-88
2022/10/20 03:17:17;;;;;;;12.20;9.63;;;;;;;;;;5054464;28;20229;-89
2022/10/20 03:19:44;;;;;;;15.83;9.37;;;;;;;;;;5054801;28;20206;-89
2022/10/20 03:22:11;;;;;;;11.43;8.80;;;;;;;;;;5054322;28;20238;-89
2022/10/20 03:24:40;;;;;;;12.20;9.83;;;;;;;;;;5054893;28;20206;-88
2022/10/20 03:27:07;;;;;;;13.10;9.83;;;;;;;;;;5053987;28;20340;-88
2022/10/20 03:29:45;;;;;;;10.90;8.93;;;;;;;;;;5054072;28;20229;-89
2022/10/20 03:32:12;;;;;;;10.20;8.83;;;;;;;;;;5053853;28;20229;-89
2022/10/20 03:34:39;;;;;;;13.63;9.57;;;;;;;;;;5054144;28;20658;-89
2022/10/20 03:37:06;;;;;;;11.97;9.47;;;;;;;;;;5053928;28;20720;-89
2022/10/20 03:39:33;;;;;;;12.10;9.80;;;;;;;;;;5053454;28;20204;-88
2022/10/20 03:42:01;;;;;;;13.80;10.07;;;;;;;;;;5054015;28;20249;-88
2022/10/20 03:44:29;;;;;;;13.77;9.77;;;;;;;;;;5053942;28;20205;-88
2022/10/20 03:46:56;;;;;;;10.47;9.37;;;;;;;;;;5053873;28;20212;-89
2022/10/20 03:49:23;;;;;;;11.20;9.40;;;;;;;;;;5053317;28;20275;-88
2022/10/20 03:51:50;;;;;;;13.07;9.67;;;;;;;;;;5053144;28;20245;-88
2022/10/20 03:54:17;;;;;;;17.27;10.70;;;;;;;;;;5054346;28;20213;-89
2022/10/20 03:56:44;;;;;;;11.87;9.67;;;;;;;;;;5054002;28;20220;-88
2022/10/20 03:59:12;;;;;;;14.90;9.57;;;;;;;;;;5059758;28;20270;-87
2022/10/20 04:01:39;;;;;;;12.13;9.73;;;;;;;;;;5056157;28;20229;-88
2022/10/20 04:04:06;;;;;;;11.77;9.53;;;;;;;;;;5054056;28;20588;-87
2022/10/20 04:06:34;;;;;;;15.93;9.90;;;;;;;;;;5053497;28;20194;-87
2022/10/20 04:09:01;;;;;;;15.07;10.37;;;;;;;;;;5056607;28;20230;-88
2022/10/20 04:11:28;;;;;;;13.80;10.17;;;;;;;;;;5044011;28;20227;-88
2022/10/20 04:13:55;;;;;;;14.73;10.33;;;;;;;;;;5033531;28;20242;-88
2022/10/20 04:16:24;;;;;;;15.67;11.47;;;;;;;;;;5051198;28;20212;-87
2022/10/20 04:18:52;;;;;;;13.60;9.63;;;;;;;;;;5041259;28;20229;-87
2022/10/20 04:21:19;;;;;;;15.67;10.03;;;;;;;;;;5053233;28;20205;-87
2022/10/20 04:23:46;;;;;;;13.07;9.83;;;;;;;;;;5052885;28;20705;-87
2022/10/20 04:26:14;;;;;;;14.37;10.30;;;;;;;;;;5053437;28;20666;-87
2022/10/20 04:28:41;;;;;;;13.37;10.80;;;;;;;;;;5052595;28;20261;-87
2022/10/20 04:31:09;;;;;;;17.53;11.07;;;;;;;;;;5053240;28;20226;-87
2022/10/20 04:33:37;;;;;;;13.17;11.03;;;;;;;;;;5052472;28;20245;-88
2022/10/20 04:36:05;;;;;;;15.70;11.03;;;;;;;;;;5052334;28;20669;-87
2022/10/20 04:38:33;;;;;;;13.37;11.03;;;;;;;;;;5053288;28;20229;-87
2022/10/20 04:41:03;;;;;;;16.57;11.10;;;;;;;;;;5053264;28;20265;-88
2022/10/20 04:43:30;;;;;;;18.10;12.17;;;;;;;;;;5052869;28;20233;-87
2022/10/20 04:45:59;;;;;;;14.53;11.20;;;;;;;;;;5053550;28;20206;-89
2022/10/20 04:48:35;;;;;;;14.33;11.33;;;;;;;;;;5062141;28;20232;-88
2022/10/20 04:51:07;;;;;;;15.57;11.43;;;;;;;;;;5073079;28;20232;-87
2022/10/20 04:53:35;;;;;;;19.87;12.50;;;;;;;;;;5072625;28;20236;-88
2022/10/20 04:56:02;;;;;;;16.33;12.00;;;;;;;;;;5045999;28;20205;-86
2022/10/20 04:58:29;;;;;;;18.20;11.20;;;;;;;;;;5032484;28;20242;-87
2022/10/20 05:01:05;;;;;;;13.77;11.10;;;;;;;;;;5036361;28;20206;-87
2022/10/20 05:03:32;;;;;;;15.07;12.17;;;;;;;;;;5055819;28;20636;-86
2022/10/20 05:06:09;;;;;;;14.37;11.57;;;;;;;;;;5057007;28;20206;-87
2022/10/20 05:08:37;;;;;;;16.23;11.87;;;;;;;;;;5056357;28;20236;-87
2022/10/20 05:11:04;;;;;;;15.27;11.50;;;;;;;;;;5056769;28;20230;-89
2022/10/20 05:13:31;;;;;;;15.50;11.60;;;;;;;;;;5070724;28;20233;-90
2022/10/20 05:15:58;;;;;;;18.53;12.60;;;;;;;;;;5076905;28;20205;-86
2022/10/20 05:18:25;;;;;;;17.83;11.30;;;;;;;;;;5075742;28;20600;-86
2022/10/20 05:20:52;;;;;;;16.57;12.07;;;;;;;;;;5076517;28;20656;-87
2022/10/20 05:23:21;;;;;;;18.60;11.90;;;;;;;;;;5065708;28;20244;-85
2022/10/20 05:25:48;;;;;;;15.13;11.97;;;;;;;;;;5056577;28;20630;-86
2022/10/20 05:28:16;;;;;;;13.97;11.80;;;;;;;;;;5055949;28;20246;-86
2022/10/20 05:30:45;;;;;;;15.07;12.30;;;;;;;;;;5055318;28;20226;-88
2022/10/20 05:33:12;;;;;;;15.40;11.60;;;;;;;;;;5052410;28;20229;-78
2022/10/20 05:35:39;;;;;;;16.47;11.97;;;;;;;;;;5059613;28;20652;-78
2022/10/20 05:38:07;;;;;;;17.13;11.70;;;;;;;;;;5054036;28;20234;-78
2022/10/20 05:40:35;;;;;;;18.20;11.43;;;;;;;;;;5054329;28;20677;-77
2022/10/20 05:43:03;;;;;;;18.87;12.17;;;;;;;;;;5054184;28;20233;-78
2022/10/20 05:45:30;;;;;;;16.13;11.93;;;;;;;;;;5054606;28;20209;-77
2022/10/20 05:47:57;;;;;;;15.27;11.83;;;;;;;;;;5053837;28;20245;-77
2022/10/20 05:50:24;;;;;;;17.90;13.00;;;;;;;;;;5054157;28;20312;-77
2022/10/20 05:52:51;;;;;;;15.87;12.07;;;;;;;;;;5053676;28;20233;-77
2022/10/20 05:55:19;;;;;;;17.77;12.80;;;;;;;;;;5054263;28;20198;-77
2022/10/20 05:57:49;;;;;;;19.63;12.90;;;;;;;;;;5053557;28;20241;-78
2022/10/20 06:00:18;;;;;;;16.87;12.17;;;;;;;;;;5054210;28;20193;-79
2022/10/20 06:02:45;;;;;;;18.43;13.10;;;;;;;;;;5053548;28;20257;-78
2022/10/20 06:05:12;;;;;;;19.50;12.90;;;;;;;;;;5045108;28;20202;-78
2022/10/20 06:07:39;;;;;;;16.17;11.83;;;;;;;;;;5045286;28;20240;-78
2022/10/20 06:10:06;;;;;;;21.17;13.73;;;;;;;;;;5049179;28;20228;-78
2022/10/20 06:12:35;;;;;;;21.97;14.10;;;;;;;;;;5036593;28;20691;-78
2022/10/20 06:15:04;;;;;;;20.90;14.03;;;;;;;;;;5032989;28;20199;-78
2022/10/20 06:17:31;;;;;;;23.43;14.13;;;;;;;;;;5037995;28;20950;-78
2022/10/20 06:19:58;;;;;;;23.30;14.00;;;;;;;;;;5042600;28;20202;-78
2022/10/20 06:22:25;;;;;;;20.87;13.27;;;;;;;;;;5059185;28;20322;-78
2022/10/20 06:24:52;;;;;;;21.07;14.50;;;;;;;;;;5059543;28;20213;-78
2022/10/20 06:27:20;;;;;;;22.63;14.60;;;;;;;;;;5061174;28;20229;-78
2022/10/20 06:29:47;;;;;;;23.77;14.60;;;;;;;;;;5073375;28;20779;-78
2022/10/20 06:32:17;;;;;;;22.60;15.17;;;;;;;;;;5072240;28;20229;-77
2022/10/20 06:34:44;;;;;;;28.10;14.90;;;;;;;;;;5060346;28;20209;-78
2022/10/20 06:37:11;;;;;;;19.67;14.13;;;;;;;;;;5072733;28;20241;-78
2022/10/20 06:39:38;;;;;;;20.07;15.43;;;;;;;;;;5072830;28;20202;-78
2022/10/20 06:42:05;;;;;;;20.63;14.90;;;;;;;;;;5053942;28;20233;-79
2022/10/20 06:44:32;;;;;;;24.60;16.10;;;;;;;;;;5053067;28;20204;-79
2022/10/20 06:47:00;;;;;;;22.00;14.50;;;;;;;;;;5052372;28;20198;-78
2022/10/20 06:49:28;;;;;;;26.30;15.70;;;;;;;;;;5052687;28;20552;-79
2022/10/20 06:51:55;;;;;;;25.30;14.20;;;;;;;;;;5051428;28;20706;-79
2022/10/20 06:54:23;;;;;;;19.77;14.13;;;;;;;;;;5035003;28;20575;-79
2022/10/20 06:56:50;;;;;;;22.00;14.93;;;;;;;;;;5042753;28;20202;-79
2022/10/20 06:59:17;;;;;;;20.97;14.10;;;;;;;;;;5052296;28;20240;-79
2022/10/20 07:01:44;;;;;;;24.47;14.70;;;;;;;;;;5052297;28;20223;-80
2022/10/20 07:04:14;;;;;;;20.83;14.77;;;;;;;;;;5052715;28;20206;-78
2022/10/20 07:06:43;;;;;;;20.97;14.90;;;;;;;;;;5052141;28;20201;-81
2022/10/20 07:09:12;;;;;;;24.87;14.87;;;;;;;;;;5049126;28;20587;-79
2022/10/20 07:11:40;;;;;;;20.70;13.70;;;;;;;;;;5032296;28;20237;-78
2022/10/20 07:14:07;;;;;;;23.83;15.37;;;;;;;;;;5046912;28;20226;-77
2022/10/20 07:16:35;;;;;;;24.73;15.97;;;;;;;;;;5052498;28;20251;-78
2022/10/20 07:19:03;;;;;;;22.93;15.70;;;;;;;;;;5050212;28;20240;-79
2022/10/20 07:21:30;;;;;;;22.83;15.73;;;;;;;;;;5039225;28;20224;-79
2022/10/20 07:24:01;;;;;;;20.00;13.57;;;;;;;;;;5051490;28;20229;-79
2022/10/20 07:26:29;;;;;;;23.63;15.17;;;;;;;;;;5050382;28;20206;-79
2022/10/20 07:28:57;;;;;;;21.23;14.90;;;;;;;;;;5039004;28;20238;-79
2022/10/20 07:31:27;;;;;;;27.23;15.37;;;;;;;;;;5040230;28;20230;-79
2022/10/20 07:33:54;;;;;;;24.30;15.20;;;;;;;;;;5037892;28;20239;-79
2022/10/20 07:36:23;;;;;;;24.20;16.87;;;;;;;;;;5039567;28;20202;-79
2022/10/20 07:38:52;;;;;;;23.70;15.77;;;;;;;;;;5043445;28;20295;-78
2022/10/20 07:41:20;;;;;;;24.60;16.97;;;;;;;;;;5044671;28;20206;-79
2022/10/20 07:43:47;;;;;;;23.47;14.47;;;;;;;;;;5051326;28;20240;-78
2022/10/20 07:46:15;;;;;;;21.67;16.03;;;;;;;;;;5051845;28;20689;-78
2022/10/20 07:48:42;;;;;;;21.07;15.10;;;;;;;;;;5050936;28;20230;-78
2022/10/20 07:51:17;;;;;;;23.40;15.50;;;;;;;;;;5051584;28;20360;-80
2022/10/20 07:53:44;;;;;;;20.73;15.30;;;;;;;;;;5051275;28;20233;-79
2022/10/20 07:56:12;;;;;;;27.40;16.43;;;;;;;;;;5049613;28;20213;-79
2022/10/20 07:58:40;;;;;;;21.37;15.97;;;;;;;;;;5035627;28;20234;-78
2022/10/20 08:01:08;;;;;;;22.33;16.27;;;;;;;;;;5031666;28;20203;-79
2022/10/20 08:03:35;;;;;;;26.80;17.00;;;;;;;;;;5031022;28;20234;-79
2022/10/20 08:06:02;;;;;;;23.50;16.17;;;;;;;;;;5031543;28;20960;-79
2022/10/20 08:08:29;;;;;;;21.33;15.23;;;;;;;;;;5030742;28;20628;-78
2022/10/20 08:10:57;;;;;;;25.13;15.87;;;;;;;;;;5031605;28;20714;-78
2022/10/20 08:13:25;;;;;;;28.33;16.07;;;;;;;;;;5044930;28;20237;-78
2022/10/20 08:15:53;;;;;;;23.63;16.03;;;;;;;;;;5051715;28;20194;-78
2022/10/20 08:18:21;;;;;;;24.83;15.27;;;;;;;;;;5046314;28;20225;-79
2022/10/20 08:20:48;;;;;;;21.43;16.73;;;;;;;;;;5037812;28;20195;-79
2022/10/20 08:23:15;;;;;;;24.47;14.97;;;;;;;;;;5049204;28;20247;-79
2022/10/20 08:25:43;;;;;;;22.63;14.93;;;;;;;;;;5050552;28;20666;-78
2022/10/20 08:28:10;;;;;;;24.83;15.40;;;;;;;;;;5039651;28;20226;-78
2022/10/20 08:30:37;;;;;;;24.17;15.30;;;;;;;;;;5031100;28;20699;-78
2022/10/20 08:33:05;;;;;;;21.27;15.40;;;;;;;;;;5030996;28;20246;-78
2022/10/20 08:35:33;;;;;;;21.00;14.53;;;;;;;;;;5044697;28;20194;-78
2022/10/20 08:38:00;;;;;;;23.67;15.70;;;;;;;;;;5048473;28;20230;-79
2022/10/20 08:40:28;;;;;;;22.97;14.97;;;;;;;;;;5046661;28;20647;-78
2022/10/20 08:42:56;;;;;;;22.93;15.07;;;;;;;;;;5050562;28;20248;-78
2022/10/20 08:45:23;;;;;;;21.70;14.17;;;;;;;;;;5031487;28;20206;-78
2022/10/20 08:47:52;;;;;;;20.50;15.00;;;;;;;;;;5030729;28;20242;-80
2022/10/20 08:50:21;;;;;;;21.47;14.53;;;;;;;;;;5031508;28;20222;-80
2022/10/20 08:52:51;;;;;;;19.77;14.83;;;;;;;;;;5030427;28;20296;-79
2022/10/20 08:55:21;;;;;;;19.80;14.57;;;;;;;;;;5038633;28;20606;-79
2022/10/20 08:57:49;;;;;;;22.80;14.47;;;;;;;;;;5050389;28;20230;-79
2022/10/20 09:00:19;;;;;;;19.40;15.00;;;;;;;;;;5050828;28;20212;-79
2022/10/20 09:02:47;;;;;;;23.17;15.27;;;;;;;;;;5050119;28;20230;-80
2022/10/20 09:05:14;;;;;;;19.23;14.87;;;;;;;;;;5050733;28;20198;-79
2022/10/20 09:07:43;;;;;;;21.47;15.33;;;;;;;;;;5050041;28;20237;-79
2022/10/20 09:10:18;;;;;;;28.93;15.97;;;;;;;;;;5050965;28;20202;-78
2022/10/20 09:12:47;;;;;;;26.27;16.10;;;;;;;;;;5050162;28;20238;-78
2022/10/20 09:15:15;;;;;;;22.43;15.97;;;;;;;;;;5050761;28;20213;-78
2022/10/20 09:17:44;;;;;;;31.77;15.60;;;;;;;;;;5049928;28;20234;-78
2022/10/20 09:20:16;;;;;;;22.90;15.27;;;;;;;;;;5050635;28;20225;-78
2022/10/20 09:22:45;;;;;;;20.00;14.03;;;;;;;;;;5050305;28;20246;-78
2022/10/20 09:25:15;;;;;;;19.13;13.43;;;;;;;;;;5050842;28;20210;-78
2022/10/20 09:27:44;;;;;;;23.73;15.30;;;;;;;;;;5050033;28;20234;-78
2022/10/20 09:30:15;;;;;;;22.37;14.53;;;;;;;;;;5050561;28;20587;-78
2022/10/20 09:32:43;;;;;;;18.33;13.53;;;;;;;;;;5052589;28;20390;-78
2022/10/20 09:35:19;;;;;;;20.63;14.43;;;;;;;;;;5053947;28;20202;-78
2022/10/20 09:37:51;;;;;;;19.73;14.10;;;;;;;;;;5049930;28;20233;-78
2022/10/20 09:40:19;;;;;;;22.93;14.60;;;;;;;;;;5050334;28;20210;-78
2022/10/20 09:42:49;;;;;;;20.03;13.87;;;;;;;;;;5053688;28;20261;-77
2022/10/20 09:45:20;;;;;;;25.27;13.83;;;;;;;;;;5050348;28;20202;-78
2022/10/20 09:47:49;;;;;;;18.30;11.67;;;;;;;;;;5049993;28;20317;-79
2022/10/20 09:50:19;;;;;;;19.03;13.77;;;;;;;;;;5053383;28;20328;-78
2022/10/20 09:52:47;;;;;;;18.50;13.17;;;;;;;;;;5053227;28;20233;-78
2022/10/20 09:55:21;;;;;;;19.07;12.90;;;;;;;;;;5053849;28;20260;-77
2022/10/20 09:57:49;;;;;;;17.60;12.17;;;;;;;;;;5049765;28;20234;-77
2022/10/20 10:00:23;;;;;;;16.57;11.87;;;;;;;;;;5051048;28;20270;-77
2022/10/20 10:03:07;;;;;;;20.87;12.53;;;;;;;;;;5057598;28;20244;-77
2022/10/20 10:05:35;;;;;;;20.00;13.40;;;;;;;;;;5073607;28;20209;-77
2022/10/20 10:08:02;;;;;;;19.77;13.07;;;;;;;;;;5073029;28;20717;-78
2022/10/20 10:10:31;;;;;;;21.30;13.17;;;;;;;;;;5073726;28;20205;-78
2022/10/20 10:13:00;;;;;;;17.13;13.33;;;;;;;;;;5059405;28;20725;-78
2022/10/20 10:15:29;;;;;;;18.03;12.43;;;;;;;;;;5054409;28;20261;-77
2022/10/20 10:17:57;;;;;;;17.10;12.53;;;;;;;;;;5058079;28;20283;-78
2022/10/20 10:20:34;;;;;;;16.97;12.60;;;;;;;;;;5053399;28;20242;-77
2022/10/20 10:23:21;;;;;;;20.10;12.47;;;;;;;;;;5052763;28;20241;-78
2022/10/20 10:25:50;;;;;;;16.07;11.90;;;;;;;;;;5053030;28;20201;-78
2022/10/20 10:28:27;;;;;;;16.17;13.10;;;;;;;;;;5051728;28;20222;-77
2022/10/20 10:31:05;;;;;;;17.43;11.73;;;;;;;;;;5053700;28;20205;-77
2022/10/20 10:33:33;;;;;;;14.33;11.33;;;;;;;;;;5052429;28;20225;-77
2022/10/20 10:36:02;;;;;;;22.10;13.07;;;;;;;;;;5053000;28;20213;-78
2022/10/20 10:38:29;;;;;;;19.13;12.53;;;;;;;;;;5052262;28;20264;-77
2022/10/20 10:41:02;;;;;;;18.50;12.60;;;;;;;;;;5052852;28;20198;-77
2022/10/20 10:43:30;;;;;;;20.23;12.67;;;;;;;;;;5051250;28;20226;-78
2022/10/20 10:45:58;;;;;;;17.60;11.47;;;;;;;;;;5052853;28;20202;-78
2022/10/20 10:48:47;;;;;;;21.57;12.77;;;;;;;;;;5051944;28;20252;-78
2022/10/20 10:51:20;;;;;;;18.10;11.93;;;;;;;;;;5052098;28;20205;-78
2022/10/20 10:53:56;;;;;;;20.03;12.20;;;;;;;;;;5052220;28;20237;-78
2022/10/20 10:56:30;;;;;;;17.60;12.40;;;;;;;;;;5047101;28;20194;-79
2022/10/20 10:58:58;;;;;;;18.60;12.97;;;;;;;;;;5032287;28;20236;-78
2022/10/20 11:01:43;;;;;;;18.03;12.87;;;;;;;;;;5057330;28;20627;-78
2022/10/20 11:04:30;;;;;;;19.47;12.03;;;;;;;;;;5048576;28;20225;-78
2022/10/20 11:06:59;;;;;;;15.30;12.63;;;;;;;;;;5046610;28;20209;-78
2022/10/20 11:09:32;;;;;;;16.93;12.27;;;;;;;;;;5051845;28;20202;-78
2022/10/20 11:12:08;;;;;;;16.23;12.07;;;;;;;;;;5050692;28;20256;-78
2022/10/20 11:14:39;;;;;;;15.70;12.03;;;;;;;;;;5043887;28;20202;-78
2022/10/20 11:17:21;;;;;;;17.37;11.77;;;;;;;;;;5051509;28;20233;-78
2022/10/20 11:19:58;;;;;;;18.50;12.70;;;;;;;;;;5056164;28;20206;-78
2022/10/20 11:22:31;;;;;;;15.13;11.50;;;;;;;;;;5051868;28;20654;-77
2022/10/20 11:25:03;;;;;;;14.83;11.43;;;;;;;;;;5052338;28;20197;-77
2022/10/20 11:27:34;;;;;;;15.83;11.80;;;;;;;;;;5051522;28;20253;-77
2022/10/20 11:30:04;;;;;;;16.73;11.93;;;;;;;;;;5051944;28;20202;-77
2022/10/20 11:32:34;;;;;;;15.53;12.57;;;;;;;;;;5051442;28;20241;-77
2022/10/20 11:35:03;;;;;;;19.50;12.20;;;;;;;;;;5042884;28;20663;-77
2022/10/20 11:37:31;;;;;;;16.40;11.77;;;;;;;;;;5050278;28;20234;-77
2022/10/20 11:40:01;;;;;;;16.40;11.33;;;;;;;;;;5058883;28;20209;-89
2022/10/20 11:42:31;;;;;;;17.60;10.90;;;;;;;;;;5073247;28;20252;-88
2022/10/20 11:45:01;;;;;;;17.37;11.67;;;;;;;;;;5073732;28;20200;-88
2022/10/20 11:47:32;;;;;;;18.97;11.37;;;;;;;;;;5073000;28;20221;-88
2022/10/20 11:49:59;;;;;;;17.47;12.03;;;;;;;;;;5073634;28;20204;-88
2022/10/20 11:52:37;;;;;;;18.83;12.23;;;;;;;;;;5067038;28;20729;-89
2022/10/20 11:55:21;;;;;;;15.87;11.63;;;;;;;;;;5053304;28;20198;-89
2022/10/20 11:57:56;;;;;;;15.87;12.40;;;;;;;;;;5052578;28;20237;-88
2022/10/20 12:00:32;;;;;;;18.07;11.40;;;;;;;;;;5053142;28;20201;-88
2022/10/20 12:03:18;;;;;;;16.27;12.13;;;;;;;;;;5052659;28;20709;-88
2022/10/20 12:06:00;;;;;;;14.97;11.27;;;;;;;;;;5052875;28;20189;-87
2022/10/20 12:08:39;;;;;;;14.30;11.10;;;;;;;;;;5039889;28;20264;-88
2022/10/20 12:11:10;;;;;;;16.03;11.20;;;;;;;;;;5052407;28;20589;-88
2022/10/20 12:13:41;;;;;;;15.10;11.17;;;;;;;;;;5052256;28;20234;-89
2022/10/20 12:16:10;;;;;;;17.33;11.50;;;;;;;;;;5053006;28;20209;-87
2022/10/20 12:18:37;;;;;;;13.17;11.23;;;;;;;;;;5052371;28;20241;-88
2022/10/20 12:21:10;;;;;;;18.83;11.40;;;;;;;;;;5052963;28;20209;-88
2022/10/20 12:24:01;;;;;;;14.10;10.67;;;;;;;;;;5052348;28;20240;-88
2022/10/20 12:26:41;;;;;;;16.27;10.70;;;;;;;;;;5068533;28;20201;-88
2022/10/20 12:29:26;;;;;;;17.70;11.43;;;;;;;;;;5071962;28;20269;-88
2022/10/20 12:32:11;;;;;;;14.30;11.17;;;;;;;;;;5072226;28;20717;-88
2022/10/20 12:34:41;;;;;;;17.97;11.80;;;;;;;;;;5072833;28;20212;-88
2022/10/20 12:37:08;;;;;;;16.37;11.27;;;;;;;;;;5055219;28;20229;-88
2022/10/20 12:39:36;;;;;;;15.13;11.87;;;;;;;;;;5053590;28;20214;-88
2022/10/20 12:42:04;;;;;;;19.23;11.90;;;;;;;;;;5051883;28;20237;-89
2022/10/20 12:44:32;;;;;;;14.90;11.83;;;;;;;;;;5052346;28;20207;-90
2022/10/20 12:47:04;;;;;;;15.53;11.50;;;;;;;;;;5052491;28;20564;-87
2022/10/20 12:49:33;;;;;;;18.97;11.37;;;;;;;;;;5036351;28;20202;-88
2022/10/20 12:52:02;;;;;;;21.33;11.63;;;;;;;;;;5045901;28;20691;-87
2022/10/20 12:54:34;;;;;;;20.00;11.47;;;;;;;;;;5034580;28;20209;-88
2022/10/20 12:57:03;;;;;;;17.67;11.57;;;;;;;;;;5044916;28;20313;-87
2022/10/20 12:59:39;;;;;;;15.20;11.77;;;;;;;;;;5036108;28;20260;-88
2022/10/20 13:02:25;;;;;;;16.67;13.40;;;;;;;;;;5034368;28;20237;-88
2022/10/20 13:04:56;;;;;;;15.93;11.17;;;;;;;;;;5034680;28;20193;-86
2022/10/20 13:07:42;;;;;;;17.07;12.30;;;;;;;;;;5072838;28;20278;-88
2022/10/20 13:10:24;;;;;;;18.37;11.40;;;;;;;;;;5058686;28;20206;-88
2022/10/20 13:12:53;;;;;;;14.40;12.20;;;;;;;;;;5052101;28;20241;-88
2022/10/20 13:15:22;;;;;;;16.97;12.03;;;;;;;;;;5052675;28;20201;-88
2022/10/20 13:17:51;;;;;;;14.40;11.67;;;;;;;;;;5054649;28;20905;-87
2022/10/20 13:20:23;;;;;;;15.40;12.20;;;;;;;;;;5071836;28;20210;-88
2022/10/20 13:22:51;;;;;;;15.60;11.03;;;;;;;;;;5073242;28;20234;-88
2022/10/20 13:25:32;;;;;;;14.00;11.03;;;;;;;;;;5076650;28;20216;-88
2022/10/20 13:28:04;;;;;;;12.03;10.73;;;;;;;;;;5075537;28;20229;-88
2022/10/20 13:30:33;;;;;;;15.27;11.20;;;;;;;;;;5076532;28;20642;-86
2022/10/20 13:33:03;;;;;;;18.53;12.93;;;;;;;;;;5073565;28;20757;-87
2022/10/20 13:35:34;;;;;;;16.07;11.37;;;;;;;;;;5061825;28;20204;-88
2022/10/20 13:38:04;;;;;;;14.50;11.47;;;;;;;;;;5060123;28;20244;-87
2022/10/20 13:40:37;;;;;;;13.70;11.23;;;;;;;;;;5055755;28;20186;-88
2022/10/20 13:43:13;;;;;;;16.60;11.33;;;;;;;;;;5055754;28;20241;-88
2022/10/20 13:45:51;;;;;;;14.07;11.00;;;;;;;;;;5056015;28;20208;-89
2022/10/20 13:48:24;;;;;;;13.40;11.23;;;;;;;;;;5055306;28;20230;-89
2022/10/20 13:50:56;;;;;;;25.10;12.30;;;;;;;;;;5055828;28;20209;-89
2022/10/20 13:53:24;;;;;;;14.40;11.37;;;;;;;;;;5054586;28;20237;-89
2022/10/20 13:55:57;;;;;;;16.37;11.27;;;;;;;;;;5055600;28;20206;-89
2022/10/20 13:58:25;;;;;;;16.47;11.93;;;;;;;;;;5054956;28;20243;-88
2022/10/20 14:00:58;;;;;;;16.70;11.27;;;;;;;;;;5055481;28;20214;-87
2022/10/20 14:03:25;;;;;;;15.90;12.23;;;;;;;;;;5054688;28;20238;-85
2022/10/20 14:05:53;;;;;;;14.57;11.50;;;;;;;;;;5045982;28;20207;-90
2022/10/20 14:08:20;;;;;;;15.57;11.47;;;;;;;;;;5036835;28;20248;-92
2022/10/20 14:10:50;;;;;;;14.90;11.47;;;;;;;;;;5047534;28;20208;-91
2022/10/20 14:13:18;;;;;;;19.73;12.57;;;;;;;;;;5055216;28;20239;-90
2022/10/20 14:15:47;;;;;;;17.57;11.83;;;;;;;;;;5047534;28;20210;-87
2022/10/20 14:18:22;;;;;;;18.37;11.93;;;;;;;;;;5054167;28;20292;-87
2022/10/20 14:20:58;;;;;;;15.17;12.20;;;;;;;;;;5064199;28;20280;-86
2022/10/20 14:23:27;;;;;;;17.47;11.77;;;;;;;;;;5054657;28;20264;-91
2022/10/20 14:26:07;;;;;;;14.47;13.00;;;;;;;;;;5055191;28;20225;-90
2022/10/20 14:28:45;;;;;;;15.30;11.67;;;;;;;;;;5053722;28;20249;-90
2022/10/20 14:31:13;;;;;;;13.53;11.70;;;;;;;;;;5055383;28;20293;-90
2022/10/20 14:33:51;;;;;;;15.50;12.07;;;;;;;;;;5065822;28;20233;-90
2022/10/20 14:36:23;;;;;;;15.87;11.60;;;;;;;;;;5075077;28;20236;-90